createdAt,value
2018-07-08T00:01:41.542Z,19.65
2018-07-08T00:04:09.348Z,19.59
2018-07-08T00:06:41.565Z,19.50
2018-07-08T00:09:10.074Z,19.39
2018-07-08T00:11:37.854Z,19.33
2018-07-08T00:14:05.882Z,19.27
2018-07-08T00:16:34.193Z,19.24
2018-07-08T00:19:01.955Z,19.21
2018-07-08T00:21:30.774Z,19.17
2018-07-08T00:23:58.528Z,19.10
2018-07-08T00:26:26.231Z,19.05
2018-07-08T00:28:54.228Z,18.97
2018-07-08T00:31:22.671Z,18.87
2018-07-08T00:33:50.391Z,18.79
2018-07-08T00:36:19.844Z,18.69
2018-07-08T00:38:49.511Z,18.65
2018-07-08T00:41:17.255Z,18.60
2018-07-08T00:43:46.658Z,18.58
2018-07-08T00:46:14.698Z,18.53
2018-07-08T00:48:42.421Z,18.48
2018-07-08T00:51:10.178Z,18.41
2018-07-08T00:53:38.163Z,18.37
2018-07-08T00:56:05.903Z,18.30
2018-07-08T00:58:33.620Z,18.23
2018-07-08T01:01:01.629Z,18.19
2018-07-08T01:03:29.347Z,18.17
2018-07-08T01:05:59.067Z,18.12
2018-07-08T01:08:27.224Z,18.05
2018-07-08T01:10:55.477Z,17.99
2018-07-08T01:13:24.141Z,17.95
2018-07-08T01:16:03.297Z,17.91
2018-07-08T01:18:34.164Z,17.84
2018-07-08T01:21:02.547Z,17.83
2018-07-08T01:23:30.546Z,17.78
2018-07-08T01:25:58.288Z,17.72
2018-07-08T01:28:26.013Z,17.68
2018-07-08T01:30:54.514Z,17.60
2018-07-08T01:33:22.575Z,17.52
2018-07-08T01:35:50.301Z,17.48
2018-07-08T01:38:18.050Z,17.48
2018-07-08T01:40:45.769Z,17.45
2018-07-08T01:43:13.793Z,17.40
2018-07-08T01:45:41.527Z,17.34
2018-07-08T01:48:09.264Z,17.25
2018-07-08T01:50:37.303Z,17.20
2018-07-08T01:53:05.008Z,17.14
2018-07-08T01:55:32.730Z,17.11
2018-07-08T01:58:00.747Z,17.05
2018-07-08T02:00:28.466Z,17.03
2018-07-08T02:02:56.923Z,17.04
2018-07-08T02:05:24.647Z,17.04
2018-07-08T02:07:52.677Z,17.06
2018-07-08T02:10:23.216Z,17.05
2018-07-08T02:12:51.582Z,17.02
2018-07-08T02:15:19.615Z,17.00
2018-07-08T02:17:47.351Z,16.98
2018-07-08T02:20:15.599Z,16.94
2018-07-08T02:22:43.328Z,16.86
2018-07-08T02:25:11.320Z,16.78
2018-07-08T02:27:39.027Z,16.76
2018-07-08T02:30:06.757Z,16.69
2018-07-08T02:32:34.774Z,16.60
2018-07-08T02:35:02.522Z,16.57
2018-07-08T02:37:30.240Z,16.56
2018-07-08T02:39:58.076Z,16.52
2018-07-08T02:42:26.095Z,16.50
2018-07-08T02:44:53.891Z,16.51
2018-07-08T02:47:21.655Z,16.50
2018-07-08T02:49:49.863Z,16.44
2018-07-08T02:52:17.585Z,16.36
2018-07-08T02:54:45.345Z,16.27
2018-07-08T02:57:13.350Z,16.19
2018-07-08T02:59:41.086Z,16.13
2018-07-08T03:02:08.785Z,16.14
2018-07-08T03:04:36.786Z,16.15
2018-07-08T03:07:04.510Z,16.11
2018-07-08T03:09:32.232Z,16.03
2018-07-08T03:11:59.949Z,15.97
2018-07-08T03:14:27.944Z,15.93
2018-07-08T03:16:55.675Z,15.91
2018-07-08T03:19:23.406Z,15.91
2018-07-08T03:21:51.158Z,15.86
2018-07-08T03:24:19.177Z,15.85
2018-07-08T03:26:47.605Z,15.86
2018-07-08T03:29:15.359Z,15.84
2018-07-08T03:31:43.403Z,15.79
2018-07-08T03:34:11.162Z,15.79
2018-07-08T03:36:38.891Z,15.78
2018-07-08T03:39:06.683Z,15.77
2018-07-08T03:41:35.005Z,15.76
2018-07-08T03:44:02.753Z,15.71
2018-07-08T03:46:30.479Z,15.68
2018-07-08T03:48:58.223Z,15.60
2018-07-08T03:51:26.246Z,15.51
2018-07-08T03:53:54.020Z,15.43
2018-07-08T03:56:22.559Z,15.38
2018-07-08T03:58:50.308Z,15.39
2018-07-08T04:01:18.343Z,15.42
2018-07-08T04:03:46.072Z,15.42
2018-07-08T04:06:13.803Z,15.43
2018-07-08T04:08:41.540Z,15.41
2018-07-08T04:11:09.729Z,15.41
2018-07-08T04:13:37.454Z,15.40
2018-07-08T04:16:06.042Z,15.41
2018-07-08T04:18:33.780Z,15.43
2018-07-08T04:21:01.776Z,15.40
2018-07-08T04:23:29.496Z,15.39
2018-07-08T04:25:57.251Z,15.44
2018-07-08T04:28:26.622Z,15.45
2018-07-08T04:30:54.671Z,15.46
2018-07-08T04:33:22.403Z,15.49
2018-07-08T04:35:50.131Z,15.54
2018-07-08T04:38:17.884Z,15.60
2018-07-08T04:40:45.919Z,15.65
2018-07-08T04:43:14.601Z,15.72
2018-07-08T04:45:42.343Z,15.78
2018-07-08T04:48:10.058Z,15.81
2018-07-08T04:50:38.697Z,15.85
2018-07-08T04:53:06.427Z,15.91
2018-07-08T04:55:34.139Z,15.98
2018-07-08T04:58:02.165Z,16.00
2018-07-08T05:00:29.898Z,16.07
2018-07-08T05:02:57.628Z,16.10
2018-07-08T05:05:25.637Z,16.16
2018-07-08T05:07:53.363Z,16.18
2018-07-08T05:10:21.079Z,16.23
2018-07-08T05:12:49.716Z,16.27
2018-07-08T05:15:17.733Z,16.31
2018-07-08T05:17:45.467Z,16.36
2018-07-08T05:20:13.195Z,16.41
2018-07-08T05:22:40.923Z,16.47
2018-07-08T05:25:08.946Z,16.51
2018-07-08T05:27:36.674Z,16.56
2018-07-08T05:30:04.459Z,16.60
2018-07-08T05:32:32.210Z,16.62
2018-07-08T05:35:00.247Z,16.65
2018-07-08T05:37:27.955Z,16.65
2018-07-08T05:39:55.687Z,16.69
2018-07-08T05:42:23.412Z,16.74
2018-07-08T05:44:51.415Z,16.78
2018-07-08T05:47:19.150Z,16.82
2018-07-08T05:49:46.907Z,16.90
2018-07-08T05:52:14.965Z,16.94
2018-07-08T05:54:42.701Z,16.98
2018-07-08T05:57:10.455Z,17.02
2018-07-08T05:59:38.502Z,17.07
2018-07-08T06:02:06.242Z,17.13
2018-07-08T06:04:34.072Z,17.20
2018-07-08T06:07:01.846Z,17.23
2018-07-08T06:09:31.018Z,17.26
2018-07-08T06:11:59.770Z,17.30
2018-07-08T06:14:29.410Z,17.33
2018-07-08T06:16:57.461Z,17.37
2018-07-08T06:19:25.250Z,17.42
2018-07-08T06:21:53.027Z,17.45
2018-07-08T06:24:21.926Z,17.48
2018-07-08T06:26:50.185Z,17.52
2018-07-08T06:29:18.539Z,17.52
2018-07-08T06:31:47.545Z,17.55
2018-07-08T06:34:15.610Z,17.61
2018-07-08T06:36:43.370Z,17.66
2018-07-08T06:39:11.136Z,17.71
2018-07-08T06:41:38.898Z,17.73
2018-07-08T06:44:07.193Z,17.74
2018-07-08T06:46:34.957Z,17.79
2018-07-08T06:49:03.280Z,17.84
2018-07-08T06:51:31.842Z,17.92
2018-07-08T06:54:00.004Z,17.96
2018-07-08T06:56:29.099Z,18.04
2018-07-08T06:58:56.869Z,18.09
2018-07-08T07:01:25.014Z,18.15
2018-07-08T07:03:53.427Z,18.22
2018-07-08T07:06:21.195Z,18.29
2018-07-08T07:08:51.930Z,18.34
2018-07-08T07:11:20.766Z,18.43
2018-07-08T07:13:49.422Z,18.49
2018-07-08T07:16:17.617Z,18.49
2018-07-08T07:18:46.318Z,18.49
2018-07-08T07:21:15.519Z,18.53
2018-07-08T07:23:43.808Z,18.59
2018-07-08T07:26:14.343Z,18.66
2018-07-08T07:28:47.560Z,18.72
2018-07-08T07:31:15.724Z,18.82
2018-07-08T07:33:43.640Z,18.82
2018-07-08T07:36:11.637Z,18.85
2018-07-08T07:38:45.302Z,18.86
2018-07-08T07:41:13.761Z,18.85
2018-07-08T07:43:42.558Z,18.86
2018-07-08T07:46:11.492Z,18.90
2018-07-08T07:51:14.601Z,19.06
2018-07-08T07:53:42.774Z,19.12
2018-07-08T07:56:15.110Z,19.18
2018-07-08T07:58:43.544Z,19.20
2018-07-08T08:01:12.424Z,19.21
2018-07-08T08:03:41.632Z,19.25
2018-07-08T08:06:12.186Z,19.30
2018-07-08T08:08:40.542Z,19.37
2018-07-08T08:11:08.284Z,19.44
2018-07-08T08:13:36.073Z,19.47
2018-07-08T08:16:07.394Z,19.53
2018-07-08T08:18:35.171Z,19.61
2018-07-08T08:21:02.961Z,19.70
2018-07-08T08:23:32.547Z,19.83
2018-07-08T08:26:01.357Z,19.91
2018-07-08T08:28:36.021Z,19.98
2018-07-08T08:31:07.307Z,20.03
2018-07-08T08:33:35.894Z,20.06
2018-07-08T08:36:05.547Z,20.14
2018-07-08T08:38:34.499Z,20.24
2018-07-08T08:41:02.248Z,20.31
2018-07-08T08:43:32.266Z,20.37
2018-07-08T08:46:00.368Z,20.40
2018-07-08T08:48:28.100Z,20.48
2018-07-08T08:50:57.426Z,20.54
2018-07-08T08:53:25.663Z,20.62
2018-07-08T08:55:54.288Z,20.62
2018-07-08T08:58:30.188Z,20.58
2018-07-08T09:00:57.954Z,20.59
2018-07-08T09:03:26.384Z,20.61
2018-07-08T09:06:07.558Z,20.69
2018-07-08T09:08:36.403Z,20.75
2018-07-08T09:11:05.389Z,20.81
2018-07-08T09:13:36.082Z,20.87
2018-07-08T09:16:04.694Z,20.96
2018-07-08T09:18:32.765Z,21.05
2018-07-08T09:21:03.358Z,21.12
2018-07-08T09:23:31.793Z,21.19
2018-07-08T09:26:00.450Z,21.30
2018-07-08T09:28:36.254Z,21.34
2018-07-08T09:31:04.332Z,21.40
2018-07-08T09:33:32.277Z,21.46
2018-07-08T09:36:03.020Z,21.47
2018-07-08T09:38:31.960Z,21.52
2018-07-08T09:40:59.808Z,21.61
2018-07-08T09:43:29.325Z,21.75
2018-07-08T09:45:59.380Z,21.86
2018-07-08T09:48:29.098Z,21.99
2018-07-08T09:50:57.775Z,22.10
2018-07-08T09:53:25.830Z,22.22
2018-07-08T09:55:54.267Z,22.37
2018-07-08T09:58:23.325Z,22.49
2018-07-08T10:00:52.799Z,22.60
2018-07-08T10:03:24.691Z,22.72
2018-07-08T10:05:53.522Z,22.83
2018-07-08T10:08:21.666Z,22.92
2018-07-08T10:10:54.450Z,23.03
2018-07-08T10:13:25.929Z,23.14
2018-07-08T10:15:58.685Z,23.26
2018-07-08T10:18:31.802Z,23.38
2018-07-08T10:21:01.771Z,23.45
2018-07-08T10:23:29.805Z,23.49
2018-07-08T10:25:59.055Z,23.51
2018-07-08T10:28:27.775Z,23.59
2018-07-08T10:30:58.404Z,23.69
2018-07-08T10:33:30.596Z,23.78
2018-07-08T10:36:07.228Z,23.88
2018-07-08T10:38:36.240Z,23.92
2018-07-08T10:41:06.405Z,23.97
2018-07-08T10:43:36.222Z,24.05
2018-07-08T10:46:05.080Z,24.13
2018-07-08T10:48:34.986Z,24.16
2018-07-08T10:51:02.790Z,24.18
2018-07-08T10:53:32.607Z,24.26
2018-07-08T10:56:02.206Z,24.32
2018-07-08T10:58:31.651Z,24.33
2018-07-08T11:01:05.594Z,24.33
2018-07-08T11:03:33.649Z,24.33
2018-07-08T11:06:06.234Z,24.42
2018-07-08T11:11:19.143Z,24.47
2018-07-08T11:13:47.457Z,24.50
2018-07-08T11:16:19.293Z,24.62
2018-07-08T11:18:49.841Z,24.68
2018-07-08T11:21:19.417Z,24.72
2018-07-08T11:23:49.819Z,24.80
2018-07-08T11:26:18.206Z,24.87
2018-07-08T11:28:50.262Z,24.98
2018-07-08T11:31:19.596Z,25.05
2018-07-08T11:33:50.417Z,25.05
2018-07-08T11:36:19.227Z,25.12
2018-07-08T11:38:50.147Z,25.21
2018-07-08T11:44:02.687Z,25.42
2018-07-08T11:46:30.909Z,25.46
2018-07-08T11:49:00.292Z,25.50
2018-07-08T11:51:30.955Z,25.54
2018-07-08T11:53:58.714Z,25.64
2018-07-08T11:56:27.560Z,25.78
2018-07-08T11:59:01.523Z,25.83
2018-07-08T12:01:30.278Z,25.86
2018-07-08T12:03:59.718Z,25.97
2018-07-08T12:06:30.585Z,26.12
2018-07-08T12:09:03.252Z,26.25
2018-07-08T12:11:32.238Z,26.40
2018-07-08T12:14:04.153Z,26.51
2018-07-08T12:16:31.882Z,26.65
2018-07-08T12:19:02.401Z,26.74
2018-07-08T12:21:31.538Z,26.68
2018-07-08T12:24:01.232Z,26.65
2018-07-08T12:26:29.965Z,26.61
2018-07-08T12:28:57.737Z,26.58
2018-07-08T12:31:25.534Z,26.62
2018-07-08T12:33:54.407Z,26.70
2018-07-08T12:36:23.752Z,26.71
2018-07-08T12:38:51.515Z,26.81
2018-07-08T12:41:22.794Z,26.93
2018-07-08T12:43:53.000Z,26.99
2018-07-08T12:46:23.428Z,26.98
2018-07-08T12:48:55.980Z,26.95
2018-07-08T12:51:25.092Z,27.06
2018-07-08T12:53:53.732Z,27.23
2018-07-08T12:56:22.737Z,27.41
2018-07-08T12:58:53.387Z,27.62
2018-07-08T13:01:21.333Z,27.82
2018-07-08T13:03:50.965Z,27.96
2018-07-08T13:06:19.388Z,28.06
2018-07-08T13:08:47.439Z,28.13
2018-07-08T13:11:16.441Z,28.22
2018-07-08T13:13:46.388Z,28.33
2018-07-08T13:16:15.775Z,28.47
2018-07-08T13:18:44.623Z,28.61
2018-07-08T13:21:13.163Z,28.73
2018-07-08T13:23:41.448Z,28.76
2018-07-08T13:26:10.444Z,28.77
2018-07-08T13:28:40.229Z,28.71
2018-07-08T13:31:08.599Z,28.73
2018-07-08T13:36:12.642Z,28.96
2018-07-08T13:38:41.863Z,29.11
2018-07-08T13:41:10.706Z,29.24
2018-07-08T13:43:39.111Z,29.36
2018-07-08T13:46:12.330Z,29.45
2018-07-08T13:48:45.689Z,29.55
2018-07-08T13:51:13.472Z,29.64
2018-07-08T13:53:44.787Z,29.71
2018-07-08T13:56:14.716Z,29.75
2018-07-08T13:58:43.275Z,29.82
2018-07-08T14:01:12.974Z,29.79
2018-07-08T14:03:41.868Z,29.83
2018-07-08T14:06:17.123Z,29.93
2018-07-08T14:08:45.423Z,30.00
2018-07-08T14:11:14.521Z,30.00
2018-07-08T14:13:43.312Z,30.02
2018-07-08T14:16:12.503Z,30.08
2018-07-08T14:18:43.290Z,30.14
2018-07-08T14:21:11.933Z,30.17
2018-07-08T14:23:39.708Z,30.23
2018-07-08T14:26:09.530Z,30.24
2018-07-08T14:28:37.282Z,30.36
2018-07-08T14:31:05.116Z,30.49
2018-07-08T14:33:34.442Z,30.51
2018-07-08T14:36:02.307Z,30.55
2018-07-08T14:38:32.380Z,30.55
2018-07-08T14:41:06.523Z,30.62
2018-07-08T14:43:34.653Z,30.67
2018-07-08T14:46:03.998Z,30.75
2018-07-08T14:48:33.529Z,30.78
2018-07-08T14:51:03.394Z,30.74
2018-07-08T14:53:31.751Z,30.71
2018-07-08T14:56:03.400Z,30.57
2018-07-08T14:58:32.675Z,30.22
2018-07-08T15:01:00.519Z,29.96
2018-07-08T15:03:31.281Z,30.00
2018-07-08T15:06:00.283Z,30.15
2018-07-08T15:08:28.034Z,30.17
2018-07-08T15:10:59.973Z,30.17
2018-07-08T15:13:28.747Z,30.29
2018-07-08T15:15:57.489Z,30.41
2018-07-08T15:18:25.761Z,30.52
2018-07-08T15:20:54.009Z,30.64
2018-07-08T15:23:24.544Z,30.71
2018-07-08T15:25:52.765Z,30.78
2018-07-08T15:28:21.440Z,30.81
2018-07-08T15:33:27.433Z,31.02
2018-07-08T15:35:55.230Z,31.10
2018-07-08T15:38:23.381Z,31.15
2018-07-08T15:40:51.277Z,31.18
2018-07-08T15:43:22.451Z,31.23
2018-07-08T15:45:53.994Z,31.22
2018-07-08T15:48:24.265Z,31.13
2018-07-08T15:50:52.823Z,30.97
2018-07-08T15:53:22.823Z,30.86
2018-07-08T15:55:50.738Z,30.86
2018-07-08T15:58:19.243Z,30.93
2018-07-08T16:00:47.857Z,31.04
2018-07-08T16:03:17.216Z,31.09
2018-07-08T16:05:45.259Z,31.16
2018-07-08T16:08:17.381Z,31.15
2018-07-08T16:10:46.384Z,31.09
2018-07-08T16:13:16.671Z,31.10
2018-07-08T16:15:44.475Z,31.09
2018-07-08T16:18:15.180Z,31.07
2018-07-08T16:20:43.578Z,30.98
2018-07-08T16:23:11.951Z,31.03
2018-07-08T16:25:39.697Z,31.00
2018-07-08T16:28:09.143Z,30.88
2018-07-08T16:30:38.496Z,30.70
2018-07-08T16:33:07.760Z,30.60
2018-07-08T16:35:35.798Z,30.59
2018-07-08T16:38:06.477Z,30.63
2018-07-08T16:40:35.110Z,30.67
2018-07-08T16:45:36.606Z,30.85
2018-07-08T16:48:06.475Z,30.86
2018-07-08T16:50:39.412Z,30.80
2018-07-08T16:53:08.637Z,30.73
2018-07-08T16:55:37.843Z,30.67
2018-07-08T16:58:07.736Z,30.58
2018-07-08T17:00:37.856Z,30.55
2018-07-08T17:03:05.620Z,30.51
2018-07-08T17:05:36.734Z,30.53
2018-07-08T17:08:11.566Z,30.51
2018-07-08T17:13:13.741Z,30.33
2018-07-08T17:15:47.310Z,30.29
2018-07-08T17:18:16.498Z,30.25
2018-07-08T17:20:44.677Z,30.18
2018-07-08T17:23:13.335Z,30.11
2018-07-08T17:28:24.705Z,29.94
2018-07-08T17:30:52.818Z,29.89
2018-07-08T17:33:23.640Z,29.90
2018-07-08T17:35:55.573Z,29.85
2018-07-08T17:38:23.329Z,29.80
2018-07-08T17:40:52.295Z,29.68
2018-07-08T17:43:20.084Z,29.61
2018-07-08T17:45:48.632Z,29.57
2018-07-08T17:48:19.597Z,29.52
2018-07-08T17:50:49.224Z,29.55
2018-07-08T17:53:18.547Z,29.53
2018-07-08T17:55:47.310Z,29.46
2018-07-08T17:58:40.542Z,29.30
2018-07-08T18:01:09.467Z,29.16
2018-07-08T18:03:37.482Z,29.12
2018-07-08T18:06:06.352Z,29.05
2018-07-08T18:08:36.298Z,28.99
2018-07-08T18:11:09.560Z,28.95
2018-07-08T18:13:37.371Z,28.89
2018-07-08T18:16:05.169Z,28.78
2018-07-08T18:18:36.978Z,28.66
2018-07-08T18:21:04.759Z,28.48
2018-07-08T18:23:33.015Z,28.35
2018-07-08T18:26:02.230Z,28.27
2018-07-08T18:28:35.267Z,28.22
2018-07-08T18:31:03.822Z,28.16
2018-07-08T18:33:35.957Z,28.12
2018-07-08T18:36:03.779Z,28.03
2018-07-08T18:38:34.636Z,27.84
2018-07-08T18:41:04.894Z,27.68
2018-07-08T18:43:35.129Z,27.59
2018-07-08T18:46:03.555Z,27.55
2018-07-08T18:48:32.338Z,27.49
2018-07-08T18:51:01.815Z,27.38
2018-07-08T18:53:30.888Z,27.29
2018-07-08T18:55:59.815Z,27.19
2018-07-08T18:58:29.868Z,27.05
2018-07-08T19:00:57.992Z,26.93
2018-07-08T19:03:27.704Z,26.83
2018-07-08T19:05:56.387Z,26.72
2018-07-08T19:08:25.416Z,26.62
2018-07-08T19:10:55.589Z,26.54
2018-07-08T19:13:24.591Z,26.47
2018-07-08T19:15:54.731Z,26.39
2018-07-08T19:18:23.469Z,26.30
2018-07-08T19:20:51.218Z,26.23
2018-07-08T19:23:20.806Z,26.20
2018-07-08T19:25:50.538Z,26.18
2018-07-08T19:28:19.911Z,26.15
2018-07-08T19:30:50.915Z,26.12
2018-07-08T19:33:22.112Z,26.10
2018-07-08T19:35:53.479Z,26.03
2018-07-08T19:38:21.470Z,25.95
2018-07-08T19:40:50.843Z,25.90
2018-07-08T19:43:19.637Z,25.87
2018-07-08T19:45:47.454Z,25.77
2018-07-08T19:48:16.337Z,25.75
2018-07-08T19:50:45.624Z,25.71
2018-07-08T19:53:14.563Z,25.68
2018-07-08T19:55:42.647Z,25.60
2018-07-08T19:58:11.383Z,25.54
2018-07-08T20:00:39.900Z,25.44
2018-07-08T20:03:09.523Z,25.33
2018-07-08T20:05:38.462Z,25.25
2018-07-08T20:08:07.388Z,25.17
2018-07-08T20:10:36.187Z,25.08
2018-07-08T20:13:05.009Z,25.00
2018-07-08T20:15:33.736Z,24.92
2018-07-08T20:18:07.263Z,24.83
2018-07-08T20:20:35.807Z,24.76
2018-07-08T20:23:05.044Z,24.71
2018-07-08T20:25:33.834Z,24.64
2018-07-08T20:28:02.212Z,24.50
2018-07-08T20:30:32.228Z,24.39
2018-07-08T20:33:00.561Z,24.29
2018-07-08T20:35:28.403Z,24.18
2018-07-08T20:37:57.095Z,24.08
2018-07-08T20:40:25.143Z,23.96
2018-07-08T20:42:55.322Z,23.88
2018-07-08T20:45:23.682Z,23.78
2018-07-08T20:50:33.767Z,23.53
2018-07-08T20:53:06.600Z,23.42
2018-07-08T20:55:42.420Z,23.32
2018-07-08T20:58:11.254Z,23.22
2018-07-08T21:00:39.802Z,23.12
2018-07-08T21:03:07.906Z,23.06
2018-07-08T21:05:36.555Z,23.01
2018-07-08T21:08:05.670Z,22.94
2018-07-08T21:10:35.269Z,22.86
2018-07-08T21:13:07.572Z,22.76
2018-07-08T21:15:37.291Z,22.70
2018-07-08T21:18:07.047Z,22.62
2018-07-08T21:20:35.586Z,22.53
2018-07-08T21:23:03.331Z,22.39
2018-07-08T21:25:32.334Z,22.28
2018-07-08T21:28:00.704Z,22.20
2018-07-08T21:30:29.416Z,22.15
2018-07-08T21:32:57.416Z,22.07
2018-07-08T21:35:25.191Z,21.97
2018-07-08T21:37:53.364Z,21.88
2018-07-08T21:40:21.662Z,21.81
2018-07-08T21:42:49.694Z,21.77
2018-07-08T21:45:19.669Z,21.72
2018-07-08T21:47:50.522Z,21.66
2018-07-08T21:50:39.400Z,21.59
2018-07-08T21:53:09.127Z,21.51
2018-07-08T21:55:36.877Z,21.45
2018-07-08T21:58:05.965Z,21.37
2018-07-08T22:00:34.438Z,21.34
2018-07-08T22:03:03.256Z,21.26
2018-07-08T22:05:31.948Z,21.22
2018-07-08T22:08:03.819Z,21.13
2018-07-08T22:10:32.209Z,21.05
2018-07-08T22:13:01.184Z,20.98
2018-07-08T22:15:29.203Z,20.94
2018-07-08T22:17:57.295Z,20.90
2018-07-08T22:20:25.118Z,20.88
2018-07-08T22:22:54.083Z,20.83
2018-07-08T22:25:22.736Z,20.75
2018-07-08T22:27:54.666Z,20.68
2018-07-08T22:30:26.326Z,20.61
2018-07-08T22:32:55.198Z,20.54
2018-07-08T22:35:23.258Z,20.47
2018-07-08T22:37:52.966Z,20.37
2018-07-08T22:40:21.515Z,20.32
2018-07-08T22:42:51.100Z,20.26
2018-07-08T22:45:20.469Z,20.22
2018-07-08T22:47:48.518Z,20.16
2018-07-08T22:50:16.620Z,20.10
2018-07-08T22:52:44.361Z,20.08
2018-07-08T22:55:12.838Z,20.03
2018-07-08T22:57:41.727Z,19.99
2018-07-08T23:00:09.449Z,19.93
2018-07-08T23:02:38.506Z,19.89
2018-07-08T23:05:07.253Z,19.84
2018-07-08T23:07:34.986Z,19.77
2018-07-08T23:10:02.711Z,19.73
2018-07-08T23:12:30.903Z,19.68
2018-07-08T23:14:58.724Z,19.65
2018-07-08T23:17:26.673Z,19.60
2018-07-08T23:19:55.327Z,19.60
2018-07-08T23:22:25.712Z,19.57
2018-07-08T23:24:53.445Z,19.53
2018-07-08T23:27:22.380Z,19.49
2018-07-08T23:29:50.118Z,19.43
2018-07-08T23:32:17.855Z,19.35
2018-07-08T23:34:46.030Z,19.31
2018-07-08T23:37:13.804Z,19.28
2018-07-08T23:39:41.546Z,19.25
2018-07-08T23:42:09.599Z,19.23
2018-07-08T23:44:38.300Z,19.20
2018-07-08T23:47:06.038Z,19.14
2018-07-08T23:49:34.066Z,19.08
2018-07-08T23:52:01.793Z,19.02
2018-07-08T23:54:29.536Z,18.94
2018-07-08T23:56:57.260Z,18.90
2018-07-08T23:59:25.520Z,18.85
